Aérodrome :
LOGIN :

S'inscrire | Disclaimer

   EN    FR    IT 

 










Légende :    VFR   VFR Marginal   IFR   IFR Intensif   IFR Très Intensif
Visi : 
Plafond : 
>= 8 km
>= 3000ft
5 à 8 km
1000 à 3000 ft
1500m à 5 km
500 à 1000 ft
800 à 1500m
200 à 500 ft
< 800m
< 200 ft
Symboles :   Orages  Brouillard  Fortes neiges  Fortes précipitations  Vent > 20 kt
SIGMETs :   Divers  Orages  Givrage  Turbulence  Onde Orograph.  Cendres Volcan.






- Altitude de l'aérodrome : 1585 ft
- Code IATA : SIR


LSGS - Sion

DERNIER METAR :
  • 281020Z 24008KT 210V280 9999 FEW080 21/07 Q1024

METARs EXPIRÉS :
  • 280950Z AUTO 25006KT 200V300 CAVOK 21/06 Q1025
  • 280920Z VRB05KT CAVOK 20/06 Q1025
  • 280850Z VRB03KT CAVOK 20/06 Q1026
  • 280820Z VRB01KT CAVOK 19/06 Q1026
  • 280750Z AUTO VRB02KT CAVOK 18/06 Q1027

TAF TAF LSGS
Valide du 28 à 09h jusqu'au 28 à 18h UTC


280825Z 2809/2818 VRB03KT CAVOK
BECMG 2810/2812 25012KT 9999 FEW090



MET'MAP, la Météo Aéronautique d'un coup d'oeil ! - Copyright ORBIFLY Décembre 2007 - Disclaimer

ORBIFLY MET'MAP TEAM :

Programmation & Développement : Alexandra Zaïnal
Sur une idée originale de : Baudouin d'Aumeries
Assistance à la programmation : Marc-Olivier Méhu
Soutien technique & logistique : Manuel Goepfert

Contact : metmap@orbifly.com




SOURCES & CREDITS :

   NOAA